sensor_id;sensor_type;location;lat;lon;timestamp;noise_LAeq;noise_LA_min;noise_LA_max;noise_LA01;noise_LA95
40103;Laerm;25814;48.550;9.108;2023-04-03T00:01:17;30.65;29.40;33.07;;
40103;Laerm;25814;48.550;9.108;2023-04-03T00:03:43;30.35;29.22;32.56;;
40103;Laerm;25814;48.550;9.108;2023-04-03T00:06:11;30.71;29.09;35.38;;
40103;Laerm;25814;48.550;9.108;2023-04-03T00:08:38;33.84;29.71;57.41;;
40103;Laerm;25814;48.550;9.108;2023-04-03T00:11:05;31.61;29.63;43.42;;
40103;Laerm;25814;48.550;9.108;2023-04-03T00:13:33;31.06;29.57;44.47;;
40103;Laerm;25814;48.550;9.108;2023-04-03T00:15:59;30.58;29.51;34.35;;
40103;Laerm;25814;48.550;9.108;2023-04-03T00:18:26;30.42;29.38;32.67;;
40103;Laerm;25814;48.550;9.108;2023-04-03T00:20:52;34.09;29.42;47.22;;
40103;Laerm;25814;48.550;9.108;2023-04-03T00:23:18;30.83;29.48;42.89;;
40103;Laerm;25814;48.550;9.108;2023-04-03T00:25:44;30.45;29.31;36.25;;
40103;Laerm;25814;48.550;9.108;2023-04-03T00:28:11;33.14;29.52;46.22;;
40103;Laerm;25814;48.550;9.108;2023-04-03T00:30:37;31.45;29.45;46.11;;
40103;Laerm;25814;48.550;9.108;2023-04-03T00:33:03;30.48;29.35;33.64;;
40103;Laerm;25814;48.550;9.108;2023-04-03T00:35:30;31.33;29.43;34.04;;
40103;Laerm;25814;48.550;9.108;2023-04-03T00:37:56;33.39;31.02;46.04;;
40103;Laerm;25814;48.550;9.108;2023-04-03T00:40:26;31.42;29.16;41.85;;
40103;Laerm;25814;48.550;9.108;2023-04-03T00:42:59;30.33;29.34;32.66;;
40103;Laerm;25814;48.550;9.108;2023-04-03T00:45:40;30.81;29.35;40.31;;
40103;Laerm;25814;48.550;9.108;2023-04-03T00:48:11;30.82;29.31;42.85;;
40103;Laerm;25814;48.550;9.108;2023-04-03T00:50:41;31.04;29.36;39.20;;
40103;Laerm;25814;48.550;9.108;2023-04-03T00:53:15;30.79;29.45;33.64;;
40103;Laerm;25814;48.550;9.108;2023-04-03T00:55:43;32.28;29.54;52.58;;
40103;Laerm;25814;48.550;9.108;2023-04-03T00:58:10;31.72;29.42;49.19;;
40103;Laerm;25814;48.550;9.108;2023-04-03T01:00:42;32.62;29.10;47.19;;
40103;Laerm;25814;48.550;9.108;2023-04-03T01:03:12;31.37;29.42;41.58;;
40103;Laerm;25814;48.550;9.108;2023-04-03T01:05:38;31.64;29.67;41.03;;
40103;Laerm;25814;48.550;9.108;2023-04-03T01:08:06;30.87;29.53;38.88;;
40103;Laerm;25814;48.550;9.108;2023-04-03T01:10:32;30.62;29.55;37.85;;
40103;Laerm;25814;48.550;9.108;2023-04-03T01:13:00;30.95;29.24;36.19;;
40103;Laerm;25814;48.550;9.108;2023-04-03T01:15:27;30.60;29.38;37.26;;
40103;Laerm;25814;48.550;9.108;2023-04-03T01:18:00;30.55;29.43;33.41;;
40103;Laerm;25814;48.550;9.108;2023-04-03T01:23:32;32.20;29.61;42.03;;
40103;Laerm;25814;48.550;9.108;2023-04-03T01:26:02;34.37;29.82;56.53;;
40103;Laerm;25814;48.550;9.108;2023-04-03T01:28:34;33.70;30.09;49.01;;
40103;Laerm;25814;48.550;9.108;2023-04-03T01:31:27;31.60;29.53;42.54;;
40103;Laerm;25814;48.550;9.108;2023-04-03T01:33:54;33.35;29.72;54.32;;
40103;Laerm;25814;48.550;9.108;2023-04-03T01:36:27;35.01;31.08;50.45;;
40103;Laerm;25814;48.550;9.108;2023-04-03T01:38:56;32.24;29.70;36.28;;
40103;Laerm;25814;48.550;9.108;2023-04-03T01:41:24;32.00;29.59;49.13;;
40103;Laerm;25814;48.550;9.108;2023-04-03T01:43:51;32.10;29.51;49.56;;
40103;Laerm;25814;48.550;9.108;2023-04-03T01:46:18;32.28;29.43;46.64;;
40103;Laerm;25814;48.550;9.108;2023-04-03T01:48:45;31.84;29.69;42.30;;
40103;Laerm;25814;48.550;9.108;2023-04-03T01:51:11;30.89;29.72;33.34;;
40103;Laerm;25814;48.550;9.108;2023-04-03T01:53:38;31.16;29.75;38.67;;
40103;Laerm;25814;48.550;9.108;2023-04-03T01:56:04;31.35;29.79;39.54;;
40103;Laerm;25814;48.550;9.108;2023-04-03T01:58:31;31.03;29.64;42.20;;
40103;Laerm;25814;48.550;9.108;2023-04-03T02:00:57;32.04;29.69;46.61;;
40103;Laerm;25814;48.550;9.108;2023-04-03T02:03:24;30.46;29.36;36.56;;
40103;Laerm;25814;48.550;9.108;2023-04-03T02:05:50;37.75;29.61;48.55;;
40103;Laerm;25814;48.550;9.108;2023-04-03T02:08:17;31.12;29.38;38.36;;
40103;Laerm;25814;48.550;9.108;2023-04-03T02:10:50;31.10;29.52;38.65;;
40103;Laerm;25814;48.550;9.108;2023-04-03T02:13:17;32.35;29.69;43.26;;
40103;Laerm;25814;48.550;9.108;2023-04-03T02:15:43;31.19;29.66;43.94;;
40103;Laerm;25814;48.550;9.108;2023-04-03T02:18:11;31.27;29.61;37.38;;
40103;Laerm;25814;48.550;9.108;2023-04-03T02:20:37;31.05;29.72;34.58;;
40103;Laerm;25814;48.550;9.108;2023-04-03T02:23:03;31.61;29.91;43.62;;
40103;Laerm;25814;48.550;9.108;2023-04-03T02:25:32;31.27;29.61;49.34;;
40103;Laerm;25814;48.550;9.108;2023-04-03T02:27:58;32.02;29.66;50.56;;
40103;Laerm;25814;48.550;9.108;2023-04-03T02:30:25;32.73;29.77;43.09;;
40103;Laerm;25814;48.550;9.108;2023-04-03T02:32:51;35.46;32.08;51.50;;
40103;Laerm;25814;48.550;9.108;2023-04-03T02:35:18;32.70;30.07;49.02;;
40103;Laerm;25814;48.550;9.108;2023-04-03T02:37:44;33.17;30.12;48.21;;
40103;Laerm;25814;48.550;9.108;2023-04-03T02:40:10;32.56;29.73;49.31;;
40103;Laerm;25814;48.550;9.108;2023-04-03T02:42:37;31.07;29.61;34.21;;
40103;Laerm;25814;48.550;9.108;2023-04-03T02:45:04;31.43;29.90;38.81;;
40103;Laerm;25814;48.550;9.108;2023-04-03T02:47:30;33.26;29.90;47.88;;
40103;Laerm;25814;48.550;9.108;2023-04-03T02:49:56;30.88;29.74;40.12;;
40103;Laerm;25814;48.550;9.108;2023-04-03T02:52:23;31.15;29.63;38.22;;
40103;Laerm;25814;48.550;9.108;2023-04-03T02:54:49;31.30;29.22;42.44;;
40103;Laerm;25814;48.550;9.108;2023-04-03T02:57:15;31.13;29.63;34.39;;
40103;Laerm;25814;48.550;9.108;2023-04-03T02:59:41;31.34;29.76;35.68;;
40103;Laerm;25814;48.550;9.108;2023-04-03T03:02:08;30.97;29.66;34.40;;
40103;Laerm;25814;48.550;9.108;2023-04-03T03:04:35;31.05;30.00;33.22;;
40103;Laerm;25814;48.550;9.108;2023-04-03T03:07:01;31.89;30.37;39.42;;
40103;Laerm;25814;48.550;9.108;2023-04-03T03:09:28;31.58;30.55;33.63;;
40103;Laerm;25814;48.550;9.108;2023-04-03T03:11:56;31.80;30.54;34.24;;
40103;Laerm;25814;48.550;9.108;2023-04-03T03:14:22;32.74;30.99;42.85;;
40103;Laerm;25814;48.550;9.108;2023-04-03T03:16:49;32.96;30.44;42.95;;
40103;Laerm;25814;48.550;9.108;2023-04-03T03:19:15;32.07;30.49;42.30;;
40103;Laerm;25814;48.550;9.108;2023-04-03T03:21:42;32.85;30.71;45.33;;
40103;Laerm;25814;48.550;9.108;2023-04-03T03:24:08;31.74;30.58;36.76;;
40103;Laerm;25814;48.550;9.108;2023-04-03T03:26:34;31.77;30.62;35.56;;
40103;Laerm;25814;48.550;9.108;2023-04-03T03:29:00;33.85;32.06;39.12;;
40103;Laerm;25814;48.550;9.108;2023-04-03T03:31:27;33.96;31.26;45.58;;
40103;Laerm;25814;48.550;9.108;2023-04-03T03:33:53;32.35;30.77;38.94;;
40103;Laerm;25814;48.550;9.108;2023-04-03T03:36:19;32.21;30.64;39.65;;
40103;Laerm;25814;48.550;9.108;2023-04-03T03:38:46;31.89;30.72;33.82;;
40103;Laerm;25814;48.550;9.108;2023-04-03T03:41:12;32.02;30.81;37.23;;
40103;Laerm;25814;48.550;9.108;2023-04-03T03:43:38;31.54;30.33;36.71;;
40103;Laerm;25814;48.550;9.108;2023-04-03T03:46:04;31.66;30.44;35.73;;
40103;Laerm;25814;48.550;9.108;2023-04-03T03:48:31;32.11;30.61;39.22;;
40103;Laerm;25814;48.550;9.108;2023-04-03T03:50:57;32.66;30.66;37.92;;
40103;Laerm;25814;48.550;9.108;2023-04-03T03:53:24;34.48;30.49;47.43;;
40103;Laerm;25814;48.550;9.108;2023-04-03T03:55:50;33.47;30.40;42.77;;
40103;Laerm;25814;48.550;9.108;2023-04-03T03:58:17;34.96;30.49;50.45;;
40103;Laerm;25814;48.550;9.108;2023-04-03T04:00:44;33.15;30.16;41.89;;
40103;Laerm;25814;48.550;9.108;2023-04-03T04:03:10;34.12;30.22;41.93;;
40103;Laerm;25814;48.550;9.108;2023-04-03T04:05:36;33.46;30.69;38.71;;
40103;Laerm;25814;48.550;9.108;2023-04-03T04:08:02;33.33;30.72;40.59;;
40103;Laerm;25814;48.550;9.108;2023-04-03T04:10:29;34.21;30.45;47.62;;
40103;Laerm;25814;48.550;9.108;2023-04-03T04:12:55;44.73;30.90;62.94;;
40103;Laerm;25814;48.550;9.108;2023-04-03T04:15:21;47.98;31.71;64.99;;
40103;Laerm;25814;48.550;9.108;2023-04-03T04:17:48;41.91;31.81;59.20;;
40103;Laerm;25814;48.550;9.108;2023-04-03T04:20:14;47.77;31.54;64.74;;
40103;Laerm;25814;48.550;9.108;2023-04-03T04:22:40;42.82;33.20;65.61;;
40103;Laerm;25814;48.550;9.108;2023-04-03T04:25:07;49.33;33.04;70.74;;
40103;Laerm;25814;48.550;9.108;2023-04-03T04:27:33;53.03;33.55;71.22;;
40103;Laerm;25814;48.550;9.108;2023-04-03T04:29:59;46.69;32.30;62.55;;
40103;Laerm;25814;48.550;9.108;2023-04-03T04:32:26;45.02;32.95;59.42;;
40103;Laerm;25814;48.550;9.108;2023-04-03T04:34:52;38.65;32.12;49.38;;
40103;Laerm;25814;48.550;9.108;2023-04-03T04:37:18;45.52;31.93;59.95;;
40103;Laerm;25814;48.550;9.108;2023-04-03T04:39:44;44.03;32.24;64.56;;
40103;Laerm;25814;48.550;9.108;2023-04-03T04:42:11;48.40;33.07;65.65;;
40103;Laerm;25814;48.550;9.108;2023-04-03T04:44:39;35.54;31.38;49.22;;
40103;Laerm;25814;48.550;9.108;2023-04-03T04:47:05;49.21;31.62;68.34;;
40103;Laerm;25814;48.550;9.108;2023-04-03T04:49:32;35.05;31.84;44.13;;
40103;Laerm;25814;48.550;9.108;2023-04-03T04:51:58;38.53;31.95;46.05;;
40103;Laerm;25814;48.550;9.108;2023-04-03T04:54:24;40.79;31.44;56.69;;
40103;Laerm;25814;48.550;9.108;2023-04-03T04:56:50;38.03;32.56;46.60;;
40103;Laerm;25814;48.550;9.108;2023-04-03T04:59:16;49.23;31.70;63.86;;
40103;Laerm;25814;48.550;9.108;2023-04-03T05:01:43;42.12;31.36;56.21;;
40103;Laerm;25814;48.550;9.108;2023-04-03T05:04:09;41.71;31.52;58.30;;
40103;Laerm;25814;48.550;9.108;2023-04-03T05:06:35;36.12;31.84;47.67;;
40103;Laerm;25814;48.550;9.108;2023-04-03T05:09:01;35.70;31.48;49.74;;
40103;Laerm;25814;48.550;9.108;2023-04-03T05:11:28;36.00;32.19;42.97;;
40103;Laerm;25814;48.550;9.108;2023-04-03T05:13:54;37.87;31.03;55.91;;
40103;Laerm;25814;48.550;9.108;2023-04-03T05:16:20;43.86;31.46;62.05;;
40103;Laerm;25814;48.550;9.108;2023-04-03T05:18:46;43.83;31.34;61.28;;
40103;Laerm;25814;48.550;9.108;2023-04-03T05:21:13;37.67;31.65;48.99;;
40103;Laerm;25814;48.550;9.108;2023-04-03T05:23:39;36.64;31.32;50.44;;
40103;Laerm;25814;48.550;9.108;2023-04-03T05:26:05;38.76;32.40;48.24;;
40103;Laerm;25814;48.550;9.108;2023-04-03T05:28:31;38.80;31.46;54.39;;
40103;Laerm;25814;48.550;9.108;2023-04-03T05:30:59;37.72;31.32;53.34;;
40103;Laerm;25814;48.550;9.108;2023-04-03T05:33:25;39.79;31.45;53.95;;
40103;Laerm;25814;48.550;9.108;2023-04-03T05:35:53;39.94;31.68;51.63;;
40103;Laerm;25814;48.550;9.108;2023-04-03T05:38:19;40.73;31.31;58.05;;
40103;Laerm;25814;48.550;9.108;2023-04-03T05:40:45;39.94;32.29;56.60;;
40103;Laerm;25814;48.550;9.108;2023-04-03T05:43:12;36.37;31.78;50.39;;
40103;Laerm;25814;48.550;9.108;2023-04-03T05:45:38;39.73;31.40;60.56;;
40103;Laerm;25814;48.550;9.108;2023-04-03T05:48:04;41.24;31.68;56.72;;
40103;Laerm;25814;48.550;9.108;2023-04-03T05:50:31;37.12;31.56;51.50;;
40103;Laerm;25814;48.550;9.108;2023-04-03T05:52:57;38.25;31.58;54.47;;
40103;Laerm;25814;48.550;9.108;2023-04-03T05:55:24;39.71;31.32;58.32;;
40103;Laerm;25814;48.550;9.108;2023-04-03T05:57:51;41.57;32.48;57.85;;
40103;Laerm;25814;48.550;9.108;2023-04-03T06:00:17;49.39;31.63;62.67;;
40103;Laerm;25814;48.550;9.108;2023-04-03T06:02:44;50.33;30.76;67.94;;
40103;Laerm;25814;48.550;9.108;2023-04-03T06:05:10;39.06;30.76;56.71;;
40103;Laerm;25814;48.550;9.108;2023-04-03T06:07:37;48.09;30.74;64.69;;
40103;Laerm;25814;48.550;9.108;2023-04-03T06:10:04;38.60;31.24;51.08;;
40103;Laerm;25814;48.550;9.108;2023-04-03T06:12:31;39.21;31.02;65.98;;
40103;Laerm;25814;48.550;9.108;2023-04-03T06:14:57;43.50;30.77;59.43;;
40103;Laerm;25814;48.550;9.108;2023-04-03T06:17:23;36.08;32.20;56.02;;
40103;Laerm;25814;48.550;9.108;2023-04-03T06:19:49;34.94;30.74;52.11;;
40103;Laerm;25814;48.550;9.108;2023-04-03T06:22:16;37.24;31.43;60.11;;
40103;Laerm;25814;48.550;9.108;2023-04-03T06:24:42;35.41;31.22;49.73;;
40103;Laerm;25814;48.550;9.108;2023-04-03T06:27:10;39.58;32.27;56.45;;
40103;Laerm;25814;48.550;9.108;2023-04-03T06:29:36;37.24;31.06;46.43;;
40103;Laerm;25814;48.550;9.108;2023-04-03T06:32:03;36.36;30.74;52.51;;
40103;Laerm;25814;48.550;9.108;2023-04-03T06:34:29;39.44;31.22;59.95;;
40103;Laerm;25814;48.550;9.108;2023-04-03T06:36:55;44.98;32.35;64.89;;
40103;Laerm;25814;48.550;9.108;2023-04-03T06:39:22;43.37;31.17;58.92;;
40103;Laerm;25814;48.550;9.108;2023-04-03T06:41:49;45.47;33.24;71.72;;
40103;Laerm;25814;48.550;9.108;2023-04-03T06:44:16;45.71;32.56;62.35;;
40103;Laerm;25814;48.550;9.108;2023-04-03T06:46:43;38.17;31.87;59.05;;
40103;Laerm;25814;48.550;9.108;2023-04-03T06:49:12;37.90;31.32;58.97;;
40103;Laerm;25814;48.550;9.108;2023-04-03T06:51:38;37.54;32.04;48.84;;
40103;Laerm;25814;48.550;9.108;2023-04-03T06:54:06;37.09;31.25;53.03;;
40103;Laerm;25814;48.550;9.108;2023-04-03T06:56:33;38.69;30.49;55.47;;
40103;Laerm;25814;48.550;9.108;2023-04-03T06:59:00;38.78;32.92;55.90;;
40103;Laerm;25814;48.550;9.108;2023-04-03T07:01:28;41.27;31.81;68.28;;
40103;Laerm;25814;48.550;9.108;2023-04-03T07:03:56;36.96;32.06;50.02;;
40103;Laerm;25814;48.550;9.108;2023-04-03T07:06:23;37.43;31.79;54.04;;
40103;Laerm;25814;48.550;9.108;2023-04-03T07:08:52;36.22;31.14;52.31;;
40103;Laerm;25814;48.550;9.108;2023-04-03T07:11:18;37.64;31.44;52.35;;
40103;Laerm;25814;48.550;9.108;2023-04-03T07:13:45;37.78;33.30;56.14;;
40103;Laerm;25814;48.550;9.108;2023-04-03T07:16:12;39.59;31.45;56.83;;
40103;Laerm;25814;48.550;9.108;2023-04-03T07:18:38;38.63;30.82;52.03;;
40103;Laerm;25814;48.550;9.108;2023-04-03T07:21:05;48.23;30.73;62.25;;
40103;Laerm;25814;48.550;9.108;2023-04-03T07:23:31;43.51;32.72;56.88;;
40103;Laerm;25814;48.550;9.108;2023-04-03T07:25:57;35.73;31.32;45.47;;
40103;Laerm;25814;48.550;9.108;2023-04-03T07:28:24;39.19;32.39;61.64;;
40103;Laerm;25814;48.550;9.108;2023-04-03T07:31:08;45.84;30.34;62.29;;
40103;Laerm;25814;48.550;9.108;2023-04-03T07:33:40;45.41;30.61;59.40;;
40103;Laerm;25814;48.550;9.108;2023-04-03T07:36:07;43.74;31.70;58.21;;
40103;Laerm;25814;48.550;9.108;2023-04-03T07:38:35;35.76;30.77;52.08;;
40103;Laerm;25814;48.550;9.108;2023-04-03T07:41:03;36.98;32.37;50.81;;
40103;Laerm;25814;48.550;9.108;2023-04-03T07:43:30;35.00;30.19;43.15;;
40103;Laerm;25814;48.550;9.108;2023-04-03T07:45:56;36.17;30.46;46.23;;
40103;Laerm;25814;48.550;9.108;2023-04-03T07:48:25;34.08;30.53;46.13;;
40103;Laerm;25814;48.550;9.108;2023-04-03T07:50:52;35.00;31.01;54.62;;
40103;Laerm;25814;48.550;9.108;2023-04-03T07:53:18;36.82;30.55;46.88;;
40103;Laerm;25814;48.550;9.108;2023-04-03T07:55:48;43.39;32.63;57.11;;
40103;Laerm;25814;48.550;9.108;2023-04-03T07:58:18;44.34;30.32;60.04;;
40103;Laerm;25814;48.550;9.108;2023-04-03T08:00:46;52.43;30.93;77.86;;
40103;Laerm;25814;48.550;9.108;2023-04-03T08:03:15;43.78;31.70;65.33;;
40103;Laerm;25814;48.550;9.108;2023-04-03T08:05:49;40.74;33.37;61.37;;
40103;Laerm;25814;48.550;9.108;2023-04-03T08:08:24;37.23;32.65;45.49;;
40103;Laerm;25814;48.550;9.108;2023-04-03T08:10:59;37.56;32.37;54.62;;
40103;Laerm;25814;48.550;9.108;2023-04-03T08:13:29;39.98;33.09;52.00;;
40103;Laerm;25814;48.550;9.108;2023-04-03T08:16:12;36.27;30.34;55.97;;
40103;Laerm;25814;48.550;9.108;2023-04-03T08:18:39;33.72;30.79;47.15;;
40103;Laerm;25814;48.550;9.108;2023-04-03T08:21:13;43.11;32.18;62.74;;
40103;Laerm;25814;48.550;9.108;2023-04-03T08:23:41;39.44;30.51;55.10;;
40103;Laerm;25814;48.550;9.108;2023-04-03T08:26:17;39.26;31.34;60.87;;
40103;Laerm;25814;48.550;9.108;2023-04-03T08:28:48;38.05;32.77;55.38;;
40103;Laerm;25814;48.550;9.108;2023-04-03T08:31:19;35.47;30.83;50.86;;
40103;Laerm;25814;48.550;9.108;2023-04-03T08:33:48;44.53;30.90;59.30;;
40103;Laerm;25814;48.550;9.108;2023-04-03T08:36:25;37.74;31.29;54.79;;
40103;Laerm;25814;48.550;9.108;2023-04-03T08:38:56;44.30;32.82;60.49;;
40103;Laerm;25814;48.550;9.108;2023-04-03T08:41:36;49.28;32.92;63.01;;
40103;Laerm;25814;48.550;9.108;2023-04-03T08:47:36;42.59;33.52;51.50;;
40103;Laerm;25814;48.550;9.108;2023-04-03T08:50:19;42.14;32.97;59.78;;
40103;Laerm;25814;48.550;9.108;2023-04-03T08:52:55;42.15;35.60;53.48;;
40103;Laerm;25814;48.550;9.108;2023-04-03T08:55:47;40.67;34.30;46.49;;
40103;Laerm;25814;48.550;9.108;2023-04-03T08:58:23;44.17;31.10;59.38;;
40103;Laerm;25814;48.550;9.108;2023-04-03T09:03:46;39.03;30.39;54.16;;
40103;Laerm;25814;48.550;9.108;2023-04-03T09:06:26;42.28;32.63;55.81;;
40103;Laerm;25814;48.550;9.108;2023-04-03T09:09:24;40.79;32.40;59.73;;
40103;Laerm;25814;48.550;9.108;2023-04-03T09:12:10;38.15;31.71;55.95;;
40103;Laerm;25814;48.550;9.108;2023-04-03T09:15:16;37.52;32.19;47.04;;
40103;Laerm;25814;48.550;9.108;2023-04-03T09:18:23;39.99;31.28;61.06;;
40103;Laerm;25814;48.550;9.108;2023-04-03T09:21:10;37.56;33.15;55.73;;
40103;Laerm;25814;48.550;9.108;2023-04-03T09:23:55;36.82;31.00;53.71;;
40103;Laerm;25814;48.550;9.108;2023-04-03T09:26:35;40.23;31.98;57.13;;
40103;Laerm;25814;48.550;9.108;2023-04-03T09:29:07;38.49;31.37;54.20;;
40103;Laerm;25814;48.550;9.108;2023-04-03T09:31:40;37.62;30.52;51.63;;
40103;Laerm;25814;48.550;9.108;2023-04-03T09:36:59;36.88;30.90;48.27;;
40103;Laerm;25814;48.550;9.108;2023-04-03T09:40:06;41.45;31.15;60.18;;
40103;Laerm;25814;48.550;9.108;2023-04-03T09:42:41;38.10;30.44;52.96;;
40103;Laerm;25814;48.550;9.108;2023-04-03T09:48:18;41.19;30.57;59.66;;
40103;Laerm;25814;48.550;9.108;2023-04-03T10:01:37;38.75;30.15;53.14;;
40103;Laerm;25814;48.550;9.108;2023-04-03T10:04:18;39.98;31.00;63.93;;
40103;Laerm;25814;48.550;9.108;2023-04-03T10:06:55;39.08;31.07;60.00;;
40103;Laerm;25814;48.550;9.108;2023-04-03T10:09:29;38.10;30.92;56.93;;
40103;Laerm;25814;48.550;9.108;2023-04-03T10:12:09;34.88;30.55;49.86;;
40103;Laerm;25814;48.550;9.108;2023-04-03T10:15:01;39.21;31.15;51.68;;
40103;Laerm;25814;48.550;9.108;2023-04-03T10:20:37;39.98;30.53;50.51;;
40103;Laerm;25814;48.550;9.108;2023-04-03T10:23:46;37.72;31.16;61.11;;
40103;Laerm;25814;48.550;9.108;2023-04-03T10:29:42;39.79;30.64;61.17;;
40103;Laerm;25814;48.550;9.108;2023-04-03T10:32:54;46.73;33.82;70.87;;
40103;Laerm;25814;48.550;9.108;2023-04-03T10:39:33;40.83;34.64;60.93;;
40103;Laerm;25814;48.550;9.108;2023-04-03T10:45:20;39.05;31.03;58.00;;
40103;Laerm;25814;48.550;9.108;2023-04-03T10:51:25;39.09;31.46;58.63;;
40103;Laerm;25814;48.550;9.108;2023-04-03T10:54:11;45.41;32.65;63.54;;
40103;Laerm;25814;48.550;9.108;2023-04-03T10:57:06;46.58;33.29;67.84;;
40103;Laerm;25814;48.550;9.108;2023-04-03T10:59:58;44.36;31.58;60.80;;
40103;Laerm;25814;48.550;9.108;2023-04-03T11:02:33;40.75;31.55;54.33;;
40103;Laerm;25814;48.550;9.108;2023-04-03T11:05:51;44.13;31.89;61.77;;
40103;Laerm;25814;48.550;9.108;2023-04-03T11:11:29;38.55;30.84;54.33;;
40103;Laerm;25814;48.550;9.108;2023-04-03T11:14:21;37.73;30.57;51.35;;
40103;Laerm;25814;48.550;9.108;2023-04-03T11:20:16;41.22;32.79;62.73;;
40103;Laerm;25814;48.550;9.108;2023-04-03T11:22:50;38.25;31.45;54.98;;
40103;Laerm;25814;48.550;9.108;2023-04-03T11:25:25;44.80;34.34;57.43;;
40103;Laerm;25814;48.550;9.108;2023-04-03T11:27:57;40.42;33.71;58.28;;
40103;Laerm;25814;48.550;9.108;2023-04-03T11:36:26;39.48;35.39;57.60;;
40103;Laerm;25814;48.550;9.108;2023-04-03T11:39:02;41.58;34.38;64.12;;
40103;Laerm;25814;48.550;9.108;2023-04-03T11:41:33;42.08;34.20;59.32;;
40103;Laerm;25814;48.550;9.108;2023-04-03T11:44:25;40.22;33.54;60.73;;
40103;Laerm;25814;48.550;9.108;2023-04-03T11:47:00;38.44;34.28;55.08;;
40103;Laerm;25814;48.550;9.108;2023-04-03T11:50:04;40.53;34.34;67.08;;
40103;Laerm;25814;48.550;9.108;2023-04-03T12:32:24;38.24;32.01;59.11;;
40103;Laerm;25814;48.550;9.108;2023-04-03T12:46:38;45.37;32.62;67.32;;
40103;Laerm;25814;48.550;9.108;2023-04-03T12:49:26;41.69;31.21;60.68;;
40103;Laerm;25814;48.550;9.108;2023-04-03T12:51:57;38.95;30.63;52.27;;
40103;Laerm;25814;48.550;9.108;2023-04-03T12:54:36;34.96;30.64;48.74;;
40103;Laerm;25814;48.550;9.108;2023-04-03T12:59:36;43.65;32.34;57.50;;
40103;Laerm;25814;48.550;9.108;2023-04-03T13:02:27;36.01;30.67;57.99;;
40103;Laerm;25814;48.550;9.108;2023-04-03T13:04:58;38.03;30.07;52.66;;
40103;Laerm;25814;48.550;9.108;2023-04-03T13:07:44;36.38;30.89;45.72;;
40103;Laerm;25814;48.550;9.108;2023-04-03T13:10:18;42.89;31.98;69.69;;
40103;Laerm;25814;48.550;9.108;2023-04-03T13:12:58;37.51;30.43;57.06;;
40103;Laerm;25814;48.550;9.108;2023-04-03T13:15:47;41.11;30.65;54.13;;
40103;Laerm;25814;48.550;9.108;2023-04-03T13:18:34;35.47;30.49;52.43;;
40103;Laerm;25814;48.550;9.108;2023-04-03T13:21:32;35.60;30.93;52.49;;
40103;Laerm;25814;48.550;9.108;2023-04-03T13:24:03;36.06;31.76;44.67;;
40103;Laerm;25814;48.550;9.108;2023-04-03T13:26:32;39.05;32.02;61.54;;
40103;Laerm;25814;48.550;9.108;2023-04-03T13:29:19;37.72;31.03;48.47;;
40103;Laerm;25814;48.550;9.108;2023-04-03T13:31:45;37.07;30.78;54.11;;
40103;Laerm;25814;48.550;9.108;2023-04-03T13:34:17;44.31;30.31;61.34;;
40103;Laerm;25814;48.550;9.108;2023-04-03T13:36:58;35.59;29.93;48.58;;
40103;Laerm;25814;48.550;9.108;2023-04-03T13:39:33;37.83;30.39;51.58;;
40103;Laerm;25814;48.550;9.108;2023-04-03T13:42:15;39.93;30.66;52.36;;
40103;Laerm;25814;48.550;9.108;2023-04-03T13:44:43;41.57;31.02;54.94;;
40103;Laerm;25814;48.550;9.108;2023-04-03T13:47:17;42.13;30.34;60.20;;
40103;Laerm;25814;48.550;9.108;2023-04-03T13:50:04;44.42;30.53;67.65;;
40103;Laerm;25814;48.550;9.108;2023-04-03T13:52:54;46.85;30.27;68.73;;
40103;Laerm;25814;48.550;9.108;2023-04-03T13:55:31;40.52;31.79;60.57;;
40103;Laerm;25814;48.550;9.108;2023-04-03T14:01:06;36.61;30.51;50.43;;
40103;Laerm;25814;48.550;9.108;2023-04-03T14:03:45;44.22;29.57;60.74;;
40103;Laerm;25814;48.550;9.108;2023-04-03T14:06:15;38.64;32.38;54.88;;
40103;Laerm;25814;48.550;9.108;2023-04-03T14:08:44;41.57;31.05;53.09;;
40103;Laerm;25814;48.550;9.108;2023-04-03T14:11:22;38.35;31.07;58.38;;
40103;Laerm;25814;48.550;9.108;2023-04-03T14:13:50;43.36;31.39;67.90;;
40103;Laerm;25814;48.550;9.108;2023-04-03T14:16:29;35.56;30.21;47.90;;
40103;Laerm;25814;48.550;9.108;2023-04-03T14:18:56;36.93;30.73;54.82;;
40103;Laerm;25814;48.550;9.108;2023-04-03T14:21:23;36.34;30.48;52.59;;
40103;Laerm;25814;48.550;9.108;2023-04-03T14:23:49;35.91;30.64;57.22;;
40103;Laerm;25814;48.550;9.108;2023-04-03T14:26:20;37.13;29.68;50.32;;
40103;Laerm;25814;48.550;9.108;2023-04-03T14:28:53;35.78;29.75;49.71;;
40103;Laerm;25814;48.550;9.108;2023-04-03T14:31:21;36.41;30.75;48.11;;
40103;Laerm;25814;48.550;9.108;2023-04-03T14:33:48;34.46;29.34;49.14;;
40103;Laerm;25814;48.550;9.108;2023-04-03T14:36:18;43.08;30.30;60.13;;
40103;Laerm;25814;48.550;9.108;2023-04-03T14:38:47;39.61;30.27;54.17;;
40103;Laerm;25814;48.550;9.108;2023-04-03T14:41:18;41.34;31.08;54.25;;
40103;Laerm;25814;48.550;9.108;2023-04-03T14:43:46;39.27;31.46;50.76;;
40103;Laerm;25814;48.550;9.108;2023-04-03T14:46:33;41.27;32.02;57.04;;
40103;Laerm;25814;48.550;9.108;2023-04-03T14:49:01;38.16;29.91;58.73;;
40103;Laerm;25814;48.550;9.108;2023-04-03T14:51:28;38.11;31.10;56.33;;
40103;Laerm;25814;48.550;9.108;2023-04-03T14:53:54;35.60;30.46;48.37;;
40103;Laerm;25814;48.550;9.108;2023-04-03T14:56:26;38.95;30.17;52.94;;
40103;Laerm;25814;48.550;9.108;2023-04-03T14:58:58;33.23;29.78;47.79;;
40103;Laerm;25814;48.550;9.108;2023-04-03T15:01:26;34.33;29.59;53.26;;
40103;Laerm;25814;48.550;9.108;2023-04-03T15:03:53;35.56;30.34;46.54;;
40103;Laerm;25814;48.550;9.108;2023-04-03T15:06:19;34.97;31.40;45.63;;
40103;Laerm;25814;48.550;9.108;2023-04-03T15:08:47;37.04;32.10;46.06;;
40103;Laerm;25814;48.550;9.108;2023-04-03T15:11:14;41.09;30.18;55.38;;
40103;Laerm;25814;48.550;9.108;2023-04-03T15:13:41;34.94;30.18;47.35;;
40103;Laerm;25814;48.550;9.108;2023-04-03T15:16:18;35.53;30.16;51.85;;
40103;Laerm;25814;48.550;9.108;2023-04-03T15:18:46;32.21;29.62;41.82;;
40103;Laerm;25814;48.550;9.108;2023-04-03T15:21:13;45.84;29.53;59.51;;
40103;Laerm;25814;48.550;9.108;2023-04-03T15:23:39;35.79;32.04;45.78;;
40103;Laerm;25814;48.550;9.108;2023-04-03T15:26:06;37.14;30.44;55.61;;
40103;Laerm;25814;48.550;9.108;2023-04-03T15:28:39;40.84;30.58;54.78;;
40103;Laerm;25814;48.550;9.108;2023-04-03T15:31:07;35.86;31.35;47.54;;
40103;Laerm;25814;48.550;9.108;2023-04-03T15:33:35;33.53;29.94;42.11;;
40103;Laerm;25814;48.550;9.108;2023-04-03T15:36:03;35.45;31.96;44.38;;
40103;Laerm;25814;48.550;9.108;2023-04-03T15:38:29;35.60;29.80;45.78;;
40103;Laerm;25814;48.550;9.108;2023-04-03T15:40:56;41.65;32.94;63.80;;
40103;Laerm;25814;48.550;9.108;2023-04-03T15:43:23;43.47;31.45;62.04;;
40103;Laerm;25814;48.550;9.108;2023-04-03T15:45:50;36.27;30.71;56.09;;
40103;Laerm;25814;48.550;9.108;2023-04-03T15:48:17;39.83;32.39;57.10;;
40103;Laerm;25814;48.550;9.108;2023-04-03T15:50:44;42.47;31.50;58.61;;
40103;Laerm;25814;48.550;9.108;2023-04-03T15:53:10;36.71;30.95;58.04;;
40103;Laerm;25814;48.550;9.108;2023-04-03T15:55:38;39.37;31.29;52.22;;
40103;Laerm;25814;48.550;9.108;2023-04-03T15:58:05;35.90;30.45;49.42;;